Time;durP1;ratioP1;P1;durP2;ratioP2;P2;SDS_P1;SDS_P2;PMS_P1;PMS_P2;Temp;Humidity;BMP_temperature;BMP_pressure;BME280_temperature;BME280_humidity;BME280_pressure;Samples;Min_cycle;Max_cycle;Signal;HPM_P1;HPM_P2
2022/11/13 00:00:40;;;;;;;;;;;5.60;99.90;;;;;;5079007;27;19970;-73
2022/11/13 00:03:05;;;;;;;;;;;5.80;99.90;;;;;;5062372;27;19928;-74
2022/11/13 00:05:31;;;;;;;;;;;5.80;99.90;;;;;;5079771;28;19975;-73
2022/11/13 00:07:56;;;;;;;;;;;5.80;99.90;;;;;;5084115;28;20428;-73
2022/11/13 00:10:22;;;;;;;;;;;5.80;99.90;;;;;;5100247;27;19920;-74
2022/11/13 00:12:47;;;;;;;;;;;5.70;99.90;;;;;;5096372;27;19930;-73
2022/11/13 00:15:13;;;;;;;;;;;5.70;99.90;;;;;;5091181;27;20027;-73
2022/11/13 00:17:38;;;;;;;;;;;5.80;99.90;;;;;;5090427;28;19927;-73
2022/11/13 00:20:04;;;;;;;;;;;5.80;99.90;;;;;;5095831;27;20366;-74
2022/11/13 00:22:29;;;;;;;;;;;5.80;99.90;;;;;;5077103;28;19924;-74
2022/11/13 00:24:55;;;;;;;;;;;5.80;99.90;;;;;;5094145;27;19966;-74
2022/11/13 00:27:20;;;;;;;;;;;5.80;99.90;;;;;;5090784;28;19935;-74
2022/11/13 00:29:46;;;;;;;;;;;5.90;99.90;;;;;;5092257;28;19924;-74
2022/11/13 00:32:11;;;;;;;;;;;5.80;99.90;;;;;;5076699;28;20031;-75
2022/11/13 00:34:37;;;;;;;;;;;5.90;99.90;;;;;;5091595;28;19920;-74
2022/11/13 00:37:02;;;;;;;;;;;5.90;99.90;;;;;;5089621;28;19928;-74
2022/11/13 00:39:28;;;;;;;;;;;5.90;99.90;;;;;;5095396;28;19930;-74
2022/11/13 00:41:53;;;;;;;;;;;5.80;99.90;;;;;;5089054;28;19928;-74
2022/11/13 00:44:19;;;;;;;;;;;5.90;99.90;;;;;;5096169;28;20579;-73
2022/11/13 00:46:44;;;;;;;;;;;6.00;99.90;;;;;;5091279;28;19923;-74
2022/11/13 00:49:10;;;;;;;;;;;6.00;99.90;;;;;;5076205;28;20026;-74
2022/11/13 00:51:35;;;;;;;;;;;6.00;99.90;;;;;;5092383;28;20078;-73
2022/11/13 00:54:01;;;;;;;;;;;6.00;99.90;;;;;;5097994;28;20296;-73
2022/11/13 00:56:26;;;;;;;;;;;6.00;99.90;;;;;;5094620;28;19931;-73
2022/11/13 00:58:52;;;;;;;;;;;6.10;99.90;;;;;;5096382;28;19978;-73
2022/11/13 01:01:18;;;;;;;;;;;6.00;99.90;;;;;;5091618;28;19920;-74
2022/11/13 01:03:44;;;;;;;;;;;6.10;99.90;;;;;;5079106;28;19924;-74
2022/11/13 01:06:12;;;;;;;;;;;6.10;99.90;;;;;;5094937;28;19924;-74
2022/11/13 01:08:38;;;;;;;;;;;6.10;99.90;;;;;;5092470;28;19920;-74
2022/11/13 01:11:08;;;;;;;;;;;6.10;99.90;;;;;;5091248;28;19931;-74
2022/11/13 01:13:33;;;;;;;;;;;6.10;99.90;;;;;;5095982;28;20072;-73
2022/11/13 01:16:03;;;;;;;;;;;6.00;99.90;;;;;;5097506;28;20655;-73
2022/11/13 01:18:28;;;;;;;;;;;6.10;99.90;;;;;;5089710;28;19927;-73
2022/11/13 01:21:00;;;;;;;;;;;6.00;99.90;;;;;;5096678;28;19924;-73
2022/11/13 01:23:26;;;;;;;;;;;6.00;99.90;;;;;;5092618;28;19976;-73
2022/11/13 01:25:51;;;;;;;;;;;6.00;99.90;;;;;;5131646;27;20278;-73
2022/11/13 01:28:17;;;;;;;;;;;6.00;99.90;;;;;;5089928;28;20273;-74
2022/11/13 01:30:42;;;;;;;;;;;6.10;99.90;;;;;;5096291;28;19927;-73
2022/11/13 01:33:08;;;;;;;;;;;6.10;99.90;;;;;;5092510;28;19920;-73
2022/11/13 01:35:33;;;;;;;;;;;6.20;99.90;;;;;;5089364;28;19995;-72
2022/11/13 01:37:59;;;;;;;;;;;6.20;99.90;;;;;;5093818;28;19942;-73
2022/11/13 01:40:24;;;;;;;;;;;6.20;99.90;;;;;;5092367;28;19920;-73
2022/11/13 01:42:50;;;;;;;;;;;6.30;99.90;;;;;;5094016;28;20660;-74
2022/11/13 01:45:34;;;;;;;;;;;6.20;99.90;;;;;;5099915;27;19933;-74
2022/11/13 01:48:00;;;;;;;;;;;6.30;99.90;;;;;;5093128;27;19928;-74
2022/11/13 01:50:25;;;;;;;;;;;6.30;99.90;;;;;;5096382;27;19927;-74
2022/11/13 01:52:51;;;;;;;;;;;6.20;99.90;;;;;;5094774;27;19932;-74
2022/11/13 01:55:17;;;;;;;;;;;6.20;99.90;;;;;;5101460;27;19920;-74
2022/11/13 01:57:43;;;;;;;;;;;6.20;99.90;;;;;;5100475;27;19978;-74
2022/11/13 02:00:10;;;;;;;;;;;6.20;99.90;;;;;;5101381;27;19924;-73
2022/11/13 02:02:35;;;;;;;;;;;6.20;99.90;;;;;;5076750;28;19928;-73
2022/11/13 02:05:01;;;;;;;;;;;6.20;99.90;;;;;;5098551;27;19931;-73
2022/11/13 02:07:27;;;;;;;;;;;6.20;99.90;;;;;;5099529;28;19995;-73
2022/11/13 02:09:54;;;;;;;;;;;6.20;99.90;;;;;;5128514;27;19924;-73
2022/11/13 02:12:23;;;;;;;;;;;6.20;99.90;;;;;;5097756;27;19976;-73
2022/11/13 02:14:51;;;;;;;;;;;6.20;99.90;;;;;;5133547;27;19920;-73
2022/11/13 02:17:24;;;;;;;;;;;6.10;99.90;;;;;;5099567;27;20027;-72
2022/11/13 02:19:52;;;;;;;;;;;6.20;99.90;;;;;;5092424;27;19924;-72
2022/11/13 02:22:21;;;;;;;;;;;6.10;99.90;;;;;;5128238;27;20322;-73
2022/11/13 02:24:47;;;;;;;;;;;6.10;99.90;;;;;;5097165;27;19920;-72
2022/11/13 02:27:23;;;;;;;;;;;6.20;99.90;;;;;;5098671;27;20612;-72
2022/11/13 02:29:48;;;;;;;;;;;6.10;99.90;;;;;;5093094;27;19919;-73
2022/11/13 02:32:13;;;;;;;;;;;6.10;99.90;;;;;;5094515;27;19935;-73
2022/11/13 02:34:39;;;;;;;;;;;6.10;99.90;;;;;;5097759;27;20378;-74
2022/11/13 02:37:04;;;;;;;;;;;6.10;99.90;;;;;;5127870;27;19920;-75
2022/11/13 02:39:30;;;;;;;;;;;6.00;99.90;;;;;;5095653;27;20020;-74
2022/11/13 02:41:55;;;;;;;;;;;6.00;99.90;;;;;;5097352;27;20286;-74
2022/11/13 02:44:21;;;;;;;;;;;5.90;99.90;;;;;;5098612;27;20015;-73
2022/11/13 02:46:46;;;;;;;;;;;5.90;99.90;;;;;;5090878;27;19978;-74
2022/11/13 02:49:12;;;;;;;;;;;5.90;99.90;;;;;;5088136;27;19936;-74
2022/11/13 02:51:37;;;;;;;;;;;5.90;99.90;;;;;;5096043;27;20492;-74
2022/11/13 02:54:03;;;;;;;;;;;5.90;99.90;;;;;;5092288;27;19920;-74
2022/11/13 02:56:28;;;;;;;;;;;5.90;99.90;;;;;;5080479;27;19963;-74
2022/11/13 02:58:54;;;;;;;;;;;5.80;99.90;;;;;;5096901;27;21297;-74
2022/11/13 03:01:19;;;;;;;;;;;5.90;99.90;;;;;;5094525;27;20343;-73
2022/11/13 03:03:45;;;;;;;;;;;5.90;99.90;;;;;;5095712;27;19920;-72
2022/11/13 03:06:10;;;;;;;;;;;5.90;99.90;;;;;;5097563;27;19951;-73
2022/11/13 03:08:36;;;;;;;;;;;5.90;99.90;;;;;;5077664;28;19923;-73
2022/11/13 03:11:05;;;;;;;;;;;5.90;99.90;;;;;;5094330;27;19931;-72
2022/11/13 03:13:31;;;;;;;;;;;5.90;99.90;;;;;;5128881;27;19927;-73
2022/11/13 03:16:03;;;;;;;;;;;5.90;99.90;;;;;;5098341;28;19920;-72
2022/11/13 03:18:28;;;;;;;;;;;5.90;99.90;;;;;;5091555;27;20370;-73
2022/11/13 03:20:54;;;;;;;;;;;5.90;99.90;;;;;;5100159;27;20007;-72
2022/11/13 03:23:19;;;;;;;;;;;5.90;99.90;;;;;;5094210;28;20294;-72
2022/11/13 03:25:45;;;;;;;;;;;6.00;99.90;;;;;;5125942;27;19959;-73
2022/11/13 03:28:10;;;;;;;;;;;5.90;99.90;;;;;;5094986;27;19927;-73
2022/11/13 03:30:36;;;;;;;;;;;5.80;99.90;;;;;;5097222;27;20314;-73
2022/11/13 03:33:01;;;;;;;;;;;5.90;99.90;;;;;;5096101;27;19936;-73
2022/11/13 03:35:28;;;;;;;;;;;5.90;99.90;;;;;;5095578;27;20014;-73
2022/11/13 03:37:53;;;;;;;;;;;5.90;99.90;;;;;;5097621;27;19920;-74
2022/11/13 03:40:19;;;;;;;;;;;5.80;99.90;;;;;;5076780;28;19920;-74
2022/11/13 03:42:44;;;;;;;;;;;5.80;99.90;;;;;;5090601;27;19924;-74
2022/11/13 03:45:09;;;;;;;;;;;5.80;99.90;;;;;;5093778;27;19928;-74
2022/11/13 03:47:35;;;;;;;;;;;5.80;99.90;;;;;;5091544;27;20003;-74
2022/11/13 03:50:00;;;;;;;;;;;5.70;99.90;;;;;;5095316;27;19930;-74
2022/11/13 03:52:26;;;;;;;;;;;5.80;99.90;;;;;;5078248;28;20367;-74
2022/11/13 03:54:51;;;;;;;;;;;5.80;99.90;;;;;;5092876;27;19930;-74
2022/11/13 03:57:17;;;;;;;;;;;5.80;99.90;;;;;;5096794;27;20002;-74
2022/11/13 03:59:42;;;;;;;;;;;5.70;99.90;;;;;;5094791;27;20191;-74
2022/11/13 04:02:08;;;;;;;;;;;5.70;99.90;;;;;;5097834;27;19924;-74
2022/11/13 04:04:33;;;;;;;;;;;5.60;99.90;;;;;;5092108;27;20279;-74
2022/11/13 04:06:59;;;;;;;;;;;5.60;99.90;;;;;;5095142;27;19927;-73
2022/11/13 04:09:24;;;;;;;;;;;5.60;99.90;;;;;;5109644;27;19924;-74
2022/11/13 04:11:50;;;;;;;;;;;5.70;99.90;;;;;;5096743;27;20026;-74
2022/11/13 04:14:15;;;;;;;;;;;5.70;99.90;;;;;;5076337;28;19924;-74
2022/11/13 04:16:41;;;;;;;;;;;5.70;99.90;;;;;;5104656;28;19924;-74
2022/11/13 04:19:06;;;;;;;;;;;5.70;99.90;;;;;;5075976;28;19926;-74
2022/11/13 04:21:32;;;;;;;;;;;5.70;99.90;;;;;;5113291;27;19984;-74
2022/11/13 04:23:57;;;;;;;;;;;5.70;99.90;;;;;;5080202;28;19971;-74
2022/11/13 04:26:23;;;;;;;;;;;5.70;99.90;;;;;;5074713;28;19927;-74
2022/11/13 04:28:48;;;;;;;;;;;5.70;99.90;;;;;;5081813;27;20281;-73
2022/11/13 04:31:14;;;;;;;;;;;5.70;99.90;;;;;;5077920;28;19924;-73
2022/11/13 04:33:39;;;;;;;;;;;5.60;99.90;;;;;;5064913;28;20022;-74
2022/11/13 04:36:05;;;;;;;;;;;5.60;99.90;;;;;;5079965;28;19935;-74
2022/11/13 04:38:31;;;;;;;;;;;5.50;99.90;;;;;;5073277;28;19975;-74
2022/11/13 04:43:45;;;;;;;;;;;5.50;99.90;;;;;;5046225;28;19978;-74
2022/11/13 04:46:10;;;;;;;;;;;5.50;99.90;;;;;;5095375;28;20319;-74
2022/11/13 04:48:36;;;;;;;;;;;5.50;99.90;;;;;;5058077;28;19934;-74
2022/11/13 04:51:01;;;;;;;;;;;5.50;99.90;;;;;;5079934;28;19931;-74
2022/11/13 04:53:27;;;;;;;;;;;5.50;99.90;;;;;;5078580;28;19924;-73
2022/11/13 04:55:52;;;;;;;;;;;5.50;99.90;;;;;;5108287;28;19920;-74
2022/11/13 04:58:18;;;;;;;;;;;5.50;99.90;;;;;;5110714;28;19920;-73
2022/11/13 05:00:43;;;;;;;;;;;5.40;99.90;;;;;;5077180;28;19928;-73
2022/11/13 05:03:09;;;;;;;;;;;5.50;99.90;;;;;;5078573;28;20057;-73
2022/11/13 05:05:34;;;;;;;;;;;5.50;99.90;;;;;;5089641;28;19972;-73
2022/11/13 05:08:00;;;;;;;;;;;5.50;99.90;;;;;;5085685;28;20362;-74
2022/11/13 05:10:25;;;;;;;;;;;5.40;99.90;;;;;;5092519;28;20038;-73
2022/11/13 05:12:54;;;;;;;;;;;5.40;99.90;;;;;;5094146;28;19942;-73
2022/11/13 05:15:20;;;;;;;;;;;5.40;99.90;;;;;;5093469;28;19920;-73
2022/11/13 05:17:47;;;;;;;;;;;5.40;99.90;;;;;;5132439;27;20427;-74
2022/11/13 05:20:12;;;;;;;;;;;5.20;99.90;;;;;;5095974;27;19923;-72
2022/11/13 05:22:38;;;;;;;;;;;5.20;99.90;;;;;;5103864;27;20305;-73
2022/11/13 05:25:03;;;;;;;;;;;5.30;99.90;;;;;;5097267;27;19921;-73
2022/11/13 05:27:29;;;;;;;;;;;5.20;99.90;;;;;;5103886;27;20332;-72
2022/11/13 05:29:54;;;;;;;;;;;5.20;99.90;;;;;;5092576;28;19950;-71
2022/11/13 05:32:20;;;;;;;;;;;5.20;99.90;;;;;;5101301;28;20007;-72
2022/11/13 05:34:45;;;;;;;;;;;5.20;99.90;;;;;;5091699;27;19957;-72
2022/11/13 05:37:11;;;;;;;;;;;5.30;99.90;;;;;;5099952;27;20022;-71
2022/11/13 05:39:36;;;;;;;;;;;5.30;99.90;;;;;;5095570;27;20278;-73
2022/11/13 05:42:02;;;;;;;;;;;5.30;99.90;;;;;;5095112;27;20042;-71
2022/11/13 05:44:27;;;;;;;;;;;5.30;99.90;;;;;;5130511;27;19920;-73
2022/11/13 05:46:53;;;;;;;;;;;5.30;99.90;;;;;;5098511;27;20042;-72
2022/11/13 05:49:18;;;;;;;;;;;5.30;99.90;;;;;;5093006;27;20008;-74
2022/11/13 05:51:44;;;;;;;;;;;5.30;99.90;;;;;;5099000;27;19930;-72
2022/11/13 05:54:09;;;;;;;;;;;5.20;99.90;;;;;;5095694;27;19920;-73
2022/11/13 05:56:35;;;;;;;;;;;5.10;99.90;;;;;;5130185;27;19989;-73
2022/11/13 05:59:01;;;;;;;;;;;5.10;99.90;;;;;;5095041;27;19959;-73
2022/11/13 06:01:28;;;;;;;;;;;5.10;99.90;;;;;;5095004;27;19931;-73
2022/11/13 06:03:55;;;;;;;;;;;5.10;99.90;;;;;;5122018;27;20061;-73
2022/11/13 06:06:21;;;;;;;;;;;5.10;99.90;;;;;;5089310;27;19965;-74
2022/11/13 06:08:47;;;;;;;;;;;5.10;99.90;;;;;;5123716;27;19920;-74
2022/11/13 06:11:14;;;;;;;;;;;5.10;99.90;;;;;;5125505;27;19928;-73
2022/11/13 06:13:40;;;;;;;;;;;5.10;99.90;;;;;;5098897;27;19927;-73
2022/11/13 06:16:07;;;;;;;;;;;5.00;99.90;;;;;;5095562;27;19927;-74
2022/11/13 06:18:33;;;;;;;;;;;5.00;99.90;;;;;;5099042;27;19920;-74
2022/11/13 06:21:09;;;;;;;;;;;4.90;99.90;;;;;;5097013;27;19930;-74
2022/11/13 06:23:35;;;;;;;;;;;4.90;99.90;;;;;;5123986;27;20932;-74
2022/11/13 06:26:01;;;;;;;;;;;4.90;99.90;;;;;;5091678;27;19927;-74
2022/11/13 06:28:27;;;;;;;;;;;4.80;99.90;;;;;;5100489;27;19927;-75
2022/11/13 06:30:52;;;;;;;;;;;4.80;99.90;;;;;;5098299;28;19920;-75
2022/11/13 06:33:18;;;;;;;;;;;4.70;99.90;;;;;;5104088;27;19920;-75
2022/11/13 06:35:43;;;;;;;;;;;4.60;99.90;;;;;;5093082;27;20381;-74
2022/11/13 06:38:09;;;;;;;;;;;4.50;99.90;;;;;;5098150;27;20001;-74
2022/11/13 06:40:36;;;;;;;;;;;4.40;99.90;;;;;;5080284;28;19928;-74
2022/11/13 06:43:02;;;;;;;;;;;4.40;99.90;;;;;;5085090;28;20283;-74
2022/11/13 06:45:27;;;;;;;;;;;4.50;99.90;;;;;;5097433;27;19919;-74
2022/11/13 06:47:53;;;;;;;;;;;4.50;99.90;;;;;;5099924;27;20052;-74
2022/11/13 06:50:18;;;;;;;;;;;4.50;99.90;;;;;;5130175;27;19927;-75
2022/11/13 06:52:44;;;;;;;;;;;4.50;99.90;;;;;;5095538;27;19975;-74
2022/11/13 06:55:09;;;;;;;;;;;4.40;99.90;;;;;;5102718;27;19924;-73
2022/11/13 06:57:35;;;;;;;;;;;4.30;99.90;;;;;;5097853;27;20425;-73
2022/11/13 07:00:00;;;;;;;;;;;4.40;99.90;;;;;;5127489;27;19939;-73
2022/11/13 07:02:25;;;;;;;;;;;4.40;99.90;;;;;;5099255;27;20020;-74
2022/11/13 07:04:51;;;;;;;;;;;4.40;99.90;;;;;;5096278;27;19928;-74
2022/11/13 07:07:16;;;;;;;;;;;4.50;99.90;;;;;;5094011;27;19924;-75
2022/11/13 07:09:42;;;;;;;;;;;4.50;99.90;;;;;;5098093;28;19929;-74
2022/11/13 07:12:07;;;;;;;;;;;4.60;99.90;;;;;;5099537;27;19923;-74
2022/11/13 07:14:33;;;;;;;;;;;4.60;99.90;;;;;;5102097;27;19923;-74
2022/11/13 07:16:58;;;;;;;;;;;4.60;99.90;;;;;;5105983;27;19919;-75
2022/11/13 07:19:24;;;;;;;;;;;4.60;99.90;;;;;;5106507;27;19920;-73
2022/11/13 07:21:49;;;;;;;;;;;4.60;99.90;;;;;;5138476;27;19959;-75
2022/11/13 07:24:15;;;;;;;;;;;4.60;99.90;;;;;;5101896;28;19923;-75
2022/11/13 07:26:40;;;;;;;;;;;4.60;99.90;;;;;;5098280;27;19932;-75
2022/11/13 07:29:06;;;;;;;;;;;4.60;99.90;;;;;;5101606;27;19928;-75
2022/11/13 07:31:31;;;;;;;;;;;4.70;99.90;;;;;;5083555;28;19931;-75
2022/11/13 07:33:57;;;;;;;;;;;4.70;99.90;;;;;;5103811;27;19964;-75
2022/11/13 07:36:22;;;;;;;;;;;4.60;99.90;;;;;;5103539;27;20021;-75
2022/11/13 07:38:48;;;;;;;;;;;4.50;99.90;;;;;;5095133;27;19928;-75
2022/11/13 07:41:13;;;;;;;;;;;4.60;99.90;;;;;;5093539;27;19928;-75
2022/11/13 07:43:39;;;;;;;;;;;4.60;99.90;;;;;;5101433;27;20509;-74
2022/11/13 07:46:04;;;;;;;;;;;4.80;99.90;;;;;;5098745;27;19924;-75
2022/11/13 07:48:30;;;;;;;;;;;4.80;99.90;;;;;;5092604;27;20282;-75
2022/11/13 07:50:58;;;;;;;;;;;4.90;99.90;;;;;;5091792;27;19920;-75
2022/11/13 07:53:24;;;;;;;;;;;4.90;99.90;;;;;;5096181;27;20421;-75
2022/11/13 07:55:49;;;;;;;;;;;5.00;99.90;;;;;;5125139;27;19934;-75
2022/11/13 07:58:15;;;;;;;;;;;5.00;99.90;;;;;;5092728;28;20334;-74
2022/11/13 08:00:40;;;;;;;;;;;5.10;99.90;;;;;;5090691;27;19928;-74
2022/11/13 08:03:13;;;;;;;;;;;5.10;99.90;;;;;;5132790;27;19962;-74
2022/11/13 08:05:39;;;;;;;;;;;5.20;99.90;;;;;;5106071;27;20083;-74
2022/11/13 08:08:05;;;;;;;;;;;5.30;99.90;;;;;;5093546;27;19931;-74
2022/11/13 08:10:31;;;;;;;;;;;5.30;99.90;;;;;;5118257;27;19931;-74
2022/11/13 08:12:58;;;;;;;;;;;5.40;99.90;;;;;;5103278;27;19924;-74
2022/11/13 08:15:24;;;;;;;;;;;5.50;99.90;;;;;;5100602;28;19924;-74
2022/11/13 08:17:56;;;;;;;;;;;5.50;99.90;;;;;;5097089;27;20260;-74
2022/11/13 08:20:22;;;;;;;;;;;5.60;99.90;;;;;;5105598;28;20382;-73
2022/11/13 08:22:48;;;;;;;;;;;5.70;99.90;;;;;;5103898;27;19924;-73
2022/11/13 08:25:13;;;;;;;;;;;5.70;99.90;;;;;;5100195;28;19928;-73
2022/11/13 08:27:39;;;;;;;;;;;5.80;99.90;;;;;;5098466;27;19927;-72
2022/11/13 08:30:05;;;;;;;;;;;6.00;99.90;;;;;;5100897;28;20465;-73
2022/11/13 08:32:30;;;;;;;;;;;6.10;99.90;;;;;;5141268;27;19973;-72
2022/11/13 08:34:55;;;;;;;;;;;6.10;99.90;;;;;;5102905;28;20002;-72
2022/11/13 08:37:21;;;;;;;;;;;6.20;99.90;;;;;;5078539;28;19923;-72
2022/11/13 08:39:46;;;;;;;;;;;6.40;99.90;;;;;;5107154;28;19927;-72
2022/11/13 08:42:12;;;;;;;;;;;6.40;99.90;;;;;;5105496;28;19923;-72
2022/11/13 08:44:37;;;;;;;;;;;6.60;99.90;;;;;;5107344;27;19924;-72
2022/11/13 08:47:03;;;;;;;;;;;6.70;99.90;;;;;;5100297;28;19920;-71
2022/11/13 08:49:28;;;;;;;;;;;6.80;99.90;;;;;;5098049;28;20374;-71
2022/11/13 08:51:54;;;;;;;;;;;6.90;99.90;;;;;;5103154;28;20379;-72
2022/11/13 08:54:19;;;;;;;;;;;7.00;99.90;;;;;;5108997;28;20275;-72
2022/11/13 08:56:48;;;;;;;;;;;7.20;99.90;;;;;;5102078;28;19919;-72
2022/11/13 08:59:13;;;;;;;;;;;7.10;99.90;;;;;;5122764;27;19949;-72
2022/11/13 09:01:39;;;;;;;;;;;7.30;99.90;;;;;;5100529;28;19924;-72
2022/11/13 09:04:04;;;;;;;;;;;7.30;99.90;;;;;;5107890;28;19934;-73
2022/11/13 09:06:30;;;;;;;;;;;7.40;99.90;;;;;;5103150;28;19920;-73
2022/11/13 09:08:55;;;;;;;;;;;7.40;99.90;;;;;;5145093;27;20324;-71
2022/11/13 09:11:21;;;;;;;;;;;7.60;99.90;;;;;;5096209;28;19957;-73
2022/11/13 09:13:47;;;;;;;;;;;7.60;99.90;;;;;;5102560;27;19973;-72
2022/11/13 09:16:12;;;;;;;;;;;7.70;99.90;;;;;;5091059;28;19928;-71
2022/11/13 09:18:38;;;;;;;;;;;7.70;99.90;;;;;;5133565;27;20371;-71
2022/11/13 09:21:03;;;;;;;;;;;7.80;99.90;;;;;;5114077;27;19967;-72
2022/11/13 09:23:29;;;;;;;;;;;7.80;99.90;;;;;;5131453;27;19921;-70
2022/11/13 09:25:55;;;;;;;;;;;8.00;99.90;;;;;;5107082;28;19927;-71
2022/11/13 09:28:20;;;;;;;;;;;8.00;99.90;;;;;;5110281;28;19928;-71
2022/11/13 09:30:45;;;;;;;;;;;8.10;99.90;;;;;;5099121;27;19959;-71
2022/11/13 09:33:14;;;;;;;;;;;8.20;99.90;;;;;;5105252;27;20447;-70
2022/11/13 09:35:40;;;;;;;;;;;8.20;99.90;;;;;;5113985;27;19928;-71
2022/11/13 09:38:06;;;;;;;;;;;8.40;99.90;;;;;;5090288;27;19920;-71
2022/11/13 09:40:33;;;;;;;;;;;8.40;99.90;;;;;;5107749;28;19927;-71
2022/11/13 09:43:00;;;;;;;;;;;8.40;99.90;;;;;;5108261;27;19926;-71
2022/11/13 09:45:27;;;;;;;;;;;8.50;99.90;;;;;;5133523;27;20003;-71
2022/11/13 09:47:53;;;;;;;;;;;8.60;99.90;;;;;;5099160;27;19932;-71
2022/11/13 09:50:21;;;;;;;;;;;8.70;99.90;;;;;;5107268;28;19920;-71
2022/11/13 09:52:48;;;;;;;;;;;8.80;99.90;;;;;;5097256;27;19924;-70
2022/11/13 09:55:18;;;;;;;;;;;8.90;99.90;;;;;;5132484;27;19928;-71
2022/11/13 09:57:48;;;;;;;;;;;8.90;99.90;;;;;;5096259;27;20303;-71
2022/11/13 10:00:13;;;;;;;;;;;9.00;99.90;;;;;;5101690;27;20014;-71
2022/11/13 10:03:07;;;;;;;;;;;9.10;99.90;;;;;;5081389;28;20019;-71
2022/11/13 10:05:55;;;;;;;;;;;9.20;99.90;;;;;;5087470;28;19924;-70
2022/11/13 10:08:24;;;;;;;;;;;9.30;99.90;;;;;;5106410;28;19999;-71
2022/11/13 10:11:08;;;;;;;;;;;9.40;99.90;;;;;;5094840;27;19927;-71
2022/11/13 10:13:47;;;;;;;;;;;9.50;99.90;;;;;;5099338;28;19923;-71
2022/11/13 10:16:31;;;;;;;;;;;9.60;99.90;;;;;;5097631;27;20397;-69
2022/11/13 10:19:03;;;;;;;;;;;9.70;99.90;;;;;;5102883;27;19923;-69
2022/11/13 10:21:36;;;;;;;;;;;9.80;99.90;;;;;;5078405;28;19972;-69
2022/11/13 10:24:03;;;;;;;;;;;9.90;99.90;;;;;;5080708;27;19923;-70
2022/11/13 10:26:29;;;;;;;;;;;10.00;99.90;;;;;;5098385;27;19929;-70
2022/11/13 10:29:07;;;;;;;;;;;10.00;99.90;;;;;;5101467;27;19972;-69
2022/11/13 10:31:43;;;;;;;;;;;10.10;99.90;;;;;;5126347;27;19939;-70
2022/11/13 10:34:10;;;;;;;;;;;10.20;99.90;;;;;;5100982;27;19926;-70
2022/11/13 10:36:57;;;;;;;;;;;10.20;99.90;;;;;;5121820;27;19928;-70
2022/11/13 10:39:23;;;;;;;;;;;10.30;99.90;;;;;;5128547;27;19973;-70
2022/11/13 10:41:49;;;;;;;;;;;10.40;99.90;;;;;;5093417;28;19920;-70
2022/11/13 10:44:19;;;;;;;;;;;10.50;99.90;;;;;;5100759;27;19998;-69
2022/11/13 10:46:45;;;;;;;;;;;10.60;99.90;;;;;;5098224;27;19926;-70
2022/11/13 10:49:18;;;;;;;;;;;10.60;99.90;;;;;;5090057;28;20021;-70
2022/11/13 10:51:43;;;;;;;;;;;10.70;99.90;;;;;;5096795;28;19943;-70
2022/11/13 10:54:23;;;;;;;;;;;10.70;99.90;;;;;;5131617;27;19924;-70
2022/11/13 10:57:00;;;;;;;;;;;10.80;99.90;;;;;;5104250;27;20366;-70
2022/11/13 10:59:26;;;;;;;;;;;10.80;99.90;;;;;;5129356;27;19920;-69
2022/11/13 11:01:51;;;;;;;;;;;10.90;99.90;;;;;;5094832;27;19928;-69
2022/11/13 11:04:22;;;;;;;;;;;10.90;99.90;;;;;;5133834;27;19930;-69
2022/11/13 11:06:48;;;;;;;;;;;10.90;99.90;;;;;;5078518;28;20302;-70
2022/11/13 11:09:28;;;;;;;;;;;10.90;99.90;;;;;;5100432;27;19966;-70
2022/11/13 11:12:15;;;;;;;;;;;11.00;99.90;;;;;;5095267;27;19935;-70
2022/11/13 11:14:56;;;;;;;;;;;11.00;99.90;;;;;;5096768;27;19928;-70
2022/11/13 11:17:24;;;;;;;;;;;11.10;99.90;;;;;;5099114;27;20024;-70
2022/11/13 11:19:55;;;;;;;;;;;11.10;99.90;;;;;;5092488;27;19920;-70
2022/11/13 11:22:24;;;;;;;;;;;11.20;99.90;;;;;;5094354;27;19924;-70
2022/11/13 11:24:54;;;;;;;;;;;11.20;99.90;;;;;;5093016;27;19923;-70
2022/11/13 11:27:23;;;;;;;;;;;11.30;99.90;;;;;;5108470;27;19959;-70
2022/11/13 11:30:09;;;;;;;;;;;11.30;99.90;;;;;;5100607;28;19926;-70
2022/11/13 11:32:48;;;;;;;;;;;11.40;99.90;;;;;;5108925;27;19939;-70
2022/11/13 11:35:14;;;;;;;;;;;11.50;99.90;;;;;;5136994;27;19919;-69
2022/11/13 11:38:05;;;;;;;;;;;11.60;99.90;;;;;;5097345;27;20477;-70
2022/11/13 11:40:41;;;;;;;;;;;11.70;99.90;;;;;;5076734;27;19920;-70
2022/11/13 11:43:23;;;;;;;;;;;11.70;99.90;;;;;;5095810;27;19919;-71
2022/11/13 11:45:49;;;;;;;;;;;11.80;99.90;;;;;;5098140;27;19924;-71
2022/11/13 11:48:23;;;;;;;;;;;11.90;99.90;;;;;;5101812;28;19924;-71
2022/11/13 11:51:07;;;;;;;;;;;11.90;99.90;;;;;;5100118;28;19992;-70
2022/11/13 11:54:02;;;;;;;;;;;11.90;99.90;;;;;;5130457;27;19932;-70
2022/11/13 11:56:34;;;;;;;;;;;12.00;99.90;;;;;;5060755;28;19998;-70
2022/11/13 11:59:02;;;;;;;;;;;12.00;99.90;;;;;;5103392;28;19924;-69
2022/11/13 12:01:46;;;;;;;;;;;12.10;99.90;;;;;;5096424;28;19967;-70
2022/11/13 12:04:12;;;;;;;;;;;12.10;99.90;;;;;;5093883;28;20382;-70
2022/11/13 12:06:42;;;;;;;;;;;12.20;99.90;;;;;;5095205;28;20200;-70
2022/11/13 12:09:14;;;;;;;;;;;12.20;99.90;;;;;;5090806;28;19924;-70
2022/11/13 12:11:50;;;;;;;;;;;12.20;99.90;;;;;;5108961;27;19932;-69
2022/11/13 12:14:19;;;;;;;;;;;12.30;99.90;;;;;;5128331;27;19934;-69
2022/11/13 12:16:50;;;;;;;;;;;12.30;99.90;;;;;;5106517;28;19919;-69
2022/11/13 12:19:21;;;;;;;;;;;12.30;99.90;;;;;;5109575;28;19926;-70
2022/11/13 12:21:53;;;;;;;;;;;12.30;99.90;;;;;;5103265;28;20073;-69
2022/11/13 12:24:37;;;;;;;;;;;12.40;99.90;;;;;;5127528;27;20455;-69
2022/11/13 12:27:22;;;;;;;;;;;12.40;99.90;;;;;;5098816;28;19920;-68
2022/11/13 12:29:47;;;;;;;;;;;12.40;99.90;;;;;;5103081;28;20147;-69
2022/11/13 12:32:34;;;;;;;;;;;12.50;99.90;;;;;;5090040;28;20018;-69
2022/11/13 12:35:03;;;;;;;;;;;12.50;99.90;;;;;;5109630;28;20010;-68
2022/11/13 12:37:50;;;;;;;;;;;12.50;99.90;;;;;;5105419;28;20014;-69
2022/11/13 12:40:22;;;;;;;;;;;12.50;99.90;;;;;;5105263;28;19931;-69
2022/11/13 12:43:00;;;;;;;;;;;12.60;99.90;;;;;;5101445;27;19974;-70
2022/11/13 12:45:37;;;;;;;;;;;12.60;99.90;;;;;;5096232;28;19919;-70
2022/11/13 12:48:07;;;;;;;;;;;12.70;99.90;;;;;;5134992;27;19920;-69
2022/11/13 12:50:33;;;;;;;;;;;12.70;99.90;;;;;;5098483;28;20366;-69
2022/11/13 12:53:06;;;;;;;;;;;12.70;99.90;;;;;;5105062;28;20014;-69
2022/11/13 12:55:33;;;;;;;;;;;12.70;99.90;;;;;;5104402;28;20370;-69
2022/11/13 12:58:19;;;;;;;;;;;12.80;99.90;;;;;;5127008;27;19924;-68
2022/11/13 13:01:03;;;;;;;;;;;12.80;99.90;;;;;;5092036;28;19926;-68
2022/11/13 13:03:41;;;;;;;;;;;12.80;99.90;;;;;;5103768;28;19965;-68
2022/11/13 13:06:16;;;;;;;;;;;12.80;99.90;;;;;;5092235;28;19928;-67
2022/11/13 13:08:49;;;;;;;;;;;12.80;99.90;;;;;;5109214;28;19920;-68
2022/11/13 13:11:34;;;;;;;;;;;12.90;99.90;;;;;;5092429;28;19926;-69
2022/11/13 13:14:12;;;;;;;;;;;12.90;99.90;;;;;;5092217;28;20054;-70
2022/11/13 13:16:37;;;;;;;;;;;12.90;99.90;;;;;;5103032;28;19924;-68
2022/11/13 13:19:23;;;;;;;;;;;12.90;99.90;;;;;;5090261;28;19920;-68
2022/11/13 13:21:49;;;;;;;;;;;12.90;99.90;;;;;;5092481;28;19973;-68
2022/11/13 13:24:34;;;;;;;;;;;12.90;99.90;;;;;;5105697;28;19924;-68
2022/11/13 13:26:59;;;;;;;;;;;12.80;99.90;;;;;;5099299;28;19943;-69
2022/11/13 13:29:26;;;;;;;;;;;12.80;99.90;;;;;;5097977;28;20370;-68
2022/11/13 13:31:51;;;;;;;;;;;12.60;99.90;;;;;;5099444;28;19924;-69
2022/11/13 13:34:42;;;;;;;;;;;12.50;99.90;;;;;;5095219;28;19924;-70
2022/11/13 13:37:20;;;;;;;;;;;12.50;99.90;;;;;;5096400;28;20014;-69
2022/11/13 13:39:55;;;;;;;;;;;12.40;99.90;;;;;;5097989;27;19931;-67
2022/11/13 13:42:39;;;;;;;;;;;12.30;99.90;;;;;;5093896;27;19928;-67
2022/11/13 13:45:13;;;;;;;;;;;12.20;99.90;;;;;;5104239;27;19928;-69
2022/11/13 13:47:42;;;;;;;;;;;12.20;99.90;;;;;;5104750;28;19923;-70
2022/11/13 13:50:12;;;;;;;;;;;12.20;99.90;;;;;;5102004;27;19920;-64
2022/11/13 13:52:37;;;;;;;;;;;12.20;99.90;;;;;;5099604;28;19932;-68
2022/11/13 13:55:05;;;;;;;;;;;12.20;99.90;;;;;;5105630;27;20195;-67
2022/11/13 13:57:31;;;;;;;;;;;12.20;99.90;;;;;;5107290;27;19926;-67
2022/11/13 13:59:56;;;;;;;;;;;12.20;99.90;;;;;;5093970;28;19923;-67
2022/11/13 14:02:23;;;;;;;;;;;12.30;99.90;;;;;;5101221;28;19967;-67
2022/11/13 14:04:49;;;;;;;;;;;12.40;99.90;;;;;;5092154;28;21910;-67
2022/11/13 14:07:25;;;;;;;;;;;12.40;99.90;;;;;;5111503;27;20328;-66
2022/11/13 14:10:04;;;;;;;;;;;12.40;99.90;;;;;;5109524;28;20384;-67
2022/11/13 14:12:30;;;;;;;;;;;12.50;99.90;;;;;;5100709;28;20398;-67
2022/11/13 14:14:55;;;;;;;;;;;12.50;99.90;;;;;;5092568;28;19920;-66
2022/11/13 14:17:23;;;;;;;;;;;12.50;99.90;;;;;;5087999;28;20277;-67
2022/11/13 14:19:52;;;;;;;;;;;12.50;99.90;;;;;;5087127;28;19943;-67
2022/11/13 14:22:18;;;;;;;;;;;12.50;99.90;;;;;;5083374;28;20294;-66
2022/11/13 14:24:44;;;;;;;;;;;12.50;99.90;;;;;;5082001;28;19920;-66
2022/11/13 14:27:13;;;;;;;;;;;12.50;99.90;;;;;;5083317;28;19931;-66
2022/11/13 14:29:46;;;;;;;;;;;12.50;99.90;;;;;;5093595;28;19927;-66
2022/11/13 14:32:13;;;;;;;;;;;12.50;99.90;;;;;;5090415;28;19927;-67
2022/11/13 14:34:42;;;;;;;;;;;12.40;99.90;;;;;;5091591;28;20273;-67